Time,TemperatureF,DewpointF,PressureIn,WindDirection,WindDirectionDegrees,WindSpeedMPH,WindSpeedGustMPH,Humidity,HourlyPrecipIn,Conditions,Clouds,dailyrainin,SoftwareType,DateUTC
2013-03-25 00:02:00,28.9,-9.2,25.16,NNE,13,5.0,8.3,18,0.00,,,-99.99,FreeWX 2.04,2013-03-25 06:02:00,
2013-03-25 00:07:00,27.9,-10.1,25.19,NNE,12,5.0,6.3,18,0.00,,,-99.99,FreeWX 2.04,2013-03-25 06:07:00,
2013-03-25 00:12:00,26.6,-10.1,25.19,NNE,22,4.0,6.9,19,0.00,,,-99.99,FreeWX 2.04,2013-03-25 06:12:00,
2013-03-25 00:17:00,26.4,-10.1,25.19,NNE,27,4.0,7.4,19,0.00,,,-99.99,FreeWX 2.04,2013-03-25 06:17:00,
2013-03-25 00:22:00,26.4,-10.1,25.19,NNE,27,4.0,5.8,19,0.00,,,-99.99,FreeWX 2.04,2013-03-25 06:22:00,
2013-03-25 00:27:00,27.0,-9.8,25.19,NNE,26,4.0,5.4,19,0.00,,,-99.99,FreeWX 2.04,2013-03-25 06:27:00,
2013-03-25 00:32:00,27.1,-9.6,25.19,NNE,24,4.0,6.7,19,0.00,,,-99.99,FreeWX 2.04,2013-03-25 06:32:00,
2013-03-25 00:37:00,27.1,-9.6,25.19,NNE,22,4.0,6.7,19,0.00,,,-99.99,FreeWX 2.04,2013-03-25 06:37:00,
2013-03-25 00:42:00,27.7,-10.3,25.19,NNE,17,4.0,6.3,18,0.00,,,-99.99,FreeWX 2.04,2013-03-25 06:42:00,
2013-03-25 00:47:00,27.3,-9.4,25.19,NNE,13,5.0,6.9,19,0.00,,,-99.99,FreeWX 2.04,2013-03-25 06:47:00,
2013-03-25 00:52:00,26.8,-9.9,25.16,NNE,14,4.0,5.8,19,0.00,,,-99.99,FreeWX 2.04,2013-03-25 06:52:00,
2013-03-25 00:57:00,26.4,-10.1,25.16,NNE,17,4.0,5.8,19,0.00,,,-99.99,FreeWX 2.04,2013-03-25 06:57:00,
2013-03-25 01:02:00,27.0,-9.8,25.16,NNE,15,4.0,7.4,19,0.00,,,-99.99,FreeWX 2.04,2013-03-25 07:02:00,
2013-03-25 01:07:00,27.1,-9.6,25.16,NNE,13,4.0,6.3,19,0.00,,,-99.99,FreeWX 2.04,2013-03-25 07:07:00,
2013-03-25 01:12:00,26.4,-10.1,25.16,NNE,14,4.0,5.8,19,0.00,,,-99.99,FreeWX 2.04,2013-03-25 07:12:00,
2013-03-25 01:17:00,26.1,-8.5,25.16,NNE,13,5.0,6.7,21,0.00,,,-99.99,FreeWX 2.04,2013-03-25 07:17:00,
2013-03-25 01:22:00,26.2,-8.3,25.19,NNE,16,5.0,6.9,21,0.00,,,-99.99,FreeWX 2.04,2013-03-25 07:22:00,
2013-03-25 01:27:00,26.8,-7.8,25.19,NNE,14,5.0,7.8,21,0.00,,,-99.99,FreeWX 2.04,2013-03-25 07:27:00,
2013-03-25 01:32:00,27.0,-7.8,25.19,North,6,5.0,9.2,21,0.00,,,-99.99,FreeWX 2.04,2013-03-25 07:32:00,
2013-03-25 01:37:00,27.0,-7.8,25.19,North,358,6.0,8.3,21,0.00,,,-99.99,FreeWX 2.04,2013-03-25 07:37:00,
2013-03-25 01:42:00,27.0,-7.8,25.19,North,356,6.0,9.2,21,0.00,,,-99.99,FreeWX 2.04,2013-03-25 07:42:00,
2013-03-25 01:47:00,26.2,-8.3,25.19,North,9,6.0,8.3,21,0.00,,,-99.99,FreeWX 2.04,2013-03-25 07:47:00,
2013-03-25 01:52:00,25.5,-8.0,25.19,NNE,25,5.0,7.4,22,0.00,,,-99.99,FreeWX 2.04,2013-03-25 07:52:00,
2013-03-25 01:57:00,25.3,-6.3,25.19,NNE,27,5.0,8.3,24,0.00,,,-99.99,FreeWX 2.04,2013-03-25 07:57:00,
2013-03-25 02:02:00,25.7,-6.0,25.19,NNE,27,6.0,9.6,24,0.00,,,-99.99,FreeWX 2.04,2013-03-25 08:02:00,
2013-03-25 02:07:00,25.5,-6.2,25.19,NNE,28,5.0,8.3,24,0.00,,,-99.99,FreeWX 2.04,2013-03-25 08:07:00,
2013-03-25 02:12:00,25.7,-6.0,25.19,NNE,31,5.0,7.4,24,0.00,,,-99.99,FreeWX 2.04,2013-03-25 08:12:00,
2013-03-25 02:17:00,25.5,-6.2,25.19,NNE,32,5.0,9.6,24,0.00,,,-99.99,FreeWX 2.04,2013-03-25 08:17:00,
2013-03-25 02:22:00,25.5,-6.2,25.19,NNE,30,5.0,8.3,24,0.00,,,-99.99,FreeWX 2.04,2013-03-25 08:22:00,
2013-03-25 02:27:00,25.9,-5.8,25.19,NNE,32,5.0,7.8,24,0.00,,,-99.99,FreeWX 2.04,2013-03-25 08:27:00,
2013-03-25 02:33:00,26.1,-5.8,25.19,NNE,33,5.0,8.3,24,0.00,,,-99.99,FreeWX 2.04,2013-03-25 08:33:00,
2013-03-25 02:38:00,25.3,-6.3,25.19,NNE,32,5.0,8.3,24,0.00,,,-99.99,FreeWX 2.04,2013-03-25 08:38:00,
2013-03-25 02:43:00,25.0,-6.7,25.19,NNE,25,5.0,8.3,24,0.00,,,-99.99,FreeWX 2.04,2013-03-25 08:43:00,
2013-03-25 02:48:00,25.3,-6.3,25.19,NNE,20,5.0,8.7,24,0.00,,,-99.99,FreeWX 2.04,2013-03-25 08:48:00,
2013-03-25 02:53:00,25.2,-6.5,25.19,NNE,22,5.0,7.8,24,0.00,,,-99.99,FreeWX 2.04,2013-03-25 08:53:00,
2013-03-25 02:58:00,25.3,-6.3,25.19,NNE,20,5.0,6.9,24,0.00,,,-99.99,FreeWX 2.04,2013-03-25 08:58:00,
2013-03-25 03:03:00,25.5,-6.2,25.19,NNE,14,5.0,6.7,24,0.00,,,-99.99,FreeWX 2.04,2013-03-25 09:03:00,
2013-03-25 03:08:00,25.9,-8.7,25.19,North,8,6.0,8.7,21,0.00,,,-99.99,FreeWX 2.04,2013-03-25 09:08:00,
2013-03-25 03:18:00,24.3,-7.2,25.19,NNE,21,5.0,6.7,24,0.00,,,-99.99,FreeWX 2.04,2013-03-25 09:18:00,
2013-03-25 03:23:00,24.1,-7.4,25.19,NNE,29,4.0,6.9,24,0.00,,,-99.99,FreeWX 2.04,2013-03-25 09:23:00,
2013-03-25 03:28:00,23.4,-7.2,25.19,NNE,25,4.0,6.7,25,0.00,,,-99.99,FreeWX 2.04,2013-03-25 09:28:00,
2013-03-25 03:33:00,23.7,-5.3,25.19,NNE,25,5.0,9.2,27,0.00,,,-99.99,FreeWX 2.04,2013-03-25 09:33:00,
2013-03-25 03:38:00,24.1,-5.1,25.19,NNE,21,4.0,6.3,27,0.00,,,-99.99,FreeWX 2.04,2013-03-25 09:38:00,
2013-03-25 03:43:00,23.9,-5.1,25.19,NNE,16,4.0,5.8,27,0.00,,,-99.99,FreeWX 2.04,2013-03-25 09:43:00,
2013-03-25 03:48:00,23.4,-5.6,25.19,NNE,17,3.0,4.9,27,0.00,,,-99.99,FreeWX 2.04,2013-03-25 09:48:00,
2013-03-25 03:53:00,23.0,-6.0,25.19,NNE,21,2.0,4.5,27,0.00,,,-99.99,FreeWX 2.04,2013-03-25 09:53:00,
2013-03-25 03:58:00,22.6,-4.0,25.19,NNE,24,3.0,5.8,30,0.00,,,-99.99,FreeWX 2.04,2013-03-25 09:58:00,
2013-03-25 04:04:00,23.0,-3.8,25.19,NNE,28,3.0,5.8,30,0.00,,,-99.99,FreeWX 2.04,2013-03-25 10:04:00,
2013-03-25 04:09:00,23.0,-2.4,25.19,NNE,30,4.0,5.8,32,0.00,,,-99.99,FreeWX 2.04,2013-03-25 10:09:00,
2013-03-25 04:14:00,23.9,-1.7,25.19,NNE,18,4.0,8.3,32,0.00,,,-99.99,FreeWX 2.04,2013-03-25 10:14:00,
2013-03-25 04:19:00,23.9,-3.6,25.19,North,8,5.0,6.7,29,0.00,,,-99.99,FreeWX 2.04,2013-03-25 10:19:00,
2013-03-25 04:24:00,23.7,-3.1,25.19,North,9,4.0,4.9,30,0.00,,,-99.99,FreeWX 2.04,2013-03-25 10:24:00,
2013-03-25 04:29:00,23.9,-2.9,25.19,North,8,3.0,4.9,30,0.00,,,-99.99,FreeWX 2.04,2013-03-25 10:29:00,
2013-03-25 04:34:00,23.5,-3.3,25.19,North,353,4.0,5.4,30,0.00,,,-99.99,FreeWX 2.04,2013-03-25 10:34:00,
2013-03-25 04:39:00,22.6,-2.7,25.19,NNW,336,3.0,5.4,32,0.00,,,-99.99,FreeWX 2.04,2013-03-25 10:39:00,
2013-03-25 04:44:00,22.3,-3.1,25.19,NNW,338,3.0,5.4,32,0.00,,,-99.99,FreeWX 2.04,2013-03-25 10:44:00,
2013-03-25 04:49:00,22.1,-2.6,25.19,North,352,3.0,4.9,33,0.00,,,-99.99,FreeWX 2.04,2013-03-25 10:49:00,
2013-03-25 04:54:00,22.3,-2.4,25.19,North,7,3.0,5.4,33,0.00,,,-99.99,FreeWX 2.04,2013-03-25 10:54:00,
2013-03-25 04:59:00,22.1,-2.6,25.19,North,10,4.0,4.9,33,0.00,,,-99.99,FreeWX 2.04,2013-03-25 10:59:00,
2013-03-25 05:04:00,22.1,-2.6,25.19,North,5,4.0,5.8,33,0.00,,,-99.99,FreeWX 2.04,2013-03-25 11:04:00,
2013-03-25 05:09:00,22.5,-2.2,25.19,North,356,5.0,6.9,33,0.00,,,-99.99,FreeWX 2.04,2013-03-25 11:09:00,
2013-03-25 05:14:00,23.2,-1.7,25.19,North,353,6.0,9.6,33,0.00,,,-99.99,FreeWX 2.04,2013-03-25 11:14:00,
2013-03-25 05:19:00,23.4,-1.5,25.19,North,354,7.0,10.1,33,0.00,,,-99.99,FreeWX 2.04,2013-03-25 11:19:00,
2013-03-25 05:24:00,21.4,-3.3,25.19,North,4,5.0,7.8,33,0.00,,,-99.99,FreeWX 2.04,2013-03-25 11:24:00,
2013-03-25 05:29:00,20.5,-3.5,25.19,NNE,15,3.0,4.5,34,0.00,,,-99.99,FreeWX 2.04,2013-03-25 11:29:00,
2013-03-25 05:34:00,20.5,-3.5,25.19,NNE,18,3.0,5.4,34,0.00,,,-99.99,FreeWX 2.04,2013-03-25 11:34:00,
2013-03-25 05:39:00,20.7,-2.6,25.19,NNE,18,3.0,5.4,35,0.00,,,-99.99,FreeWX 2.04,2013-03-25 11:39:00,
2013-03-25 05:44:00,20.7,-2.6,25.19,NNE,19,3.0,4.5,35,0.00,,,-99.99,FreeWX 2.04,2013-03-25 11:44:00,
2013-03-25 05:49:00,20.8,-2.4,25.19,NNE,18,3.0,4.9,35,0.00,,,-99.99,FreeWX 2.04,2013-03-25 11:49:00,
2013-03-25 05:54:00,20.7,-2.6,25.19,NNE,19,3.0,5.8,35,0.00,,,-99.99,FreeWX 2.04,2013-03-25 11:54:00,
2013-03-25 05:59:00,20.8,-1.8,25.19,NNE,21,3.0,4.0,36,0.00,,,-99.99,FreeWX 2.04,2013-03-25 11:59:00,
2013-03-25 06:04:00,21.0,-2.4,25.19,NNE,21,4.0,5.4,35,0.00,,,-99.99,FreeWX 2.04,2013-03-25 12:04:00,
2013-03-25 06:09:00,20.8,-2.4,25.19,NNE,22,4.0,5.4,35,0.00,,,-99.99,FreeWX 2.04,2013-03-25 12:09:00,
2013-03-25 06:14:00,20.5,-2.7,25.19,NNE,24,4.0,5.8,35,0.00,,,-99.99,FreeWX 2.04,2013-03-25 12:14:00,
2013-03-25 06:19:00,20.8,-2.4,25.19,NNE,27,4.0,6.3,35,0.00,,,-99.99,FreeWX 2.04,2013-03-25 12:19:00,
2013-03-25 06:24:00,20.8,-2.4,25.19,NNE,26,4.0,5.8,35,0.00,,,-99.99,FreeWX 2.04,2013-03-25 12:24:00,
2013-03-25 06:29:00,21.4,-2.0,25.19,NNE,20,4.0,6.3,35,0.00,,,-99.99,FreeWX 2.04,2013-03-25 12:29:00,
2013-03-25 06:34:00,20.8,-2.4,25.19,NNE,17,4.0,5.4,35,0.00,,,-99.99,FreeWX 2.04,2013-03-25 12:34:00,
2013-03-25 06:39:00,20.1,-3.1,25.22,NNE,23,4.0,5.4,35,0.00,,,-99.99,FreeWX 2.04,2013-03-25 12:39:00,
2013-03-25 06:44:00,20.5,-2.7,25.22,NNE,25,4.0,4.9,35,0.00,,,-99.99,FreeWX 2.04,2013-03-25 12:44:00,
2013-03-25 06:49:00,20.7,-2.6,25.22,NNE,26,3.0,4.5,35,0.00,,,-99.99,FreeWX 2.04,2013-03-25 12:49:00,
2013-03-25 06:54:00,20.7,-2.6,25.22,NNE,26,3.0,4.0,35,0.00,,,-99.99,FreeWX 2.04,2013-03-25 12:54:00,
2013-03-25 06:59:00,20.5,-2.7,25.22,NNE,26,3.0,4.5,35,0.00,,,-99.99,FreeWX 2.04,2013-03-25 12:59:00,
2013-03-25 07:04:00,21.4,-2.0,25.22,NNE,26,4.0,5.8,35,0.00,,,-99.99,FreeWX 2.04,2013-03-25 13:04:00,
2013-03-25 07:09:00,21.2,-2.7,25.22,NNE,20,4.0,5.4,34,0.00,,,-99.99,FreeWX 2.04,2013-03-25 13:09:00,
2013-03-25 07:14:00,21.2,-2.7,25.22,NNE,14,4.0,6.3,34,0.00,,,-99.99,FreeWX 2.04,2013-03-25 13:14:00,
2013-03-25 07:19:00,21.0,-2.9,25.22,NNE,13,4.0,5.8,34,0.00,,,-99.99,FreeWX 2.04,2013-03-25 13:19:00,
2013-03-25 07:24:00,20.8,-3.1,25.22,NNE,12,4.0,5.8,34,0.00,,,-99.99,FreeWX 2.04,2013-03-25 13:24:00,
2013-03-25 07:29:00,21.0,-2.9,25.22,NNE,12,4.0,7.4,34,0.00,,,-99.99,FreeWX 2.04,2013-03-25 13:29:00,
2013-03-25 07:34:00,21.0,-2.4,25.22,NNE,25,4.0,6.9,35,0.00,,,-99.99,FreeWX 2.04,2013-03-25 13:34:00,
2013-03-25 07:39:00,21.2,-2.2,25.22,NNE,30,5.0,7.4,35,0.00,,,-99.99,FreeWX 2.04,2013-03-25 13:39:00,
2013-03-25 07:44:00,21.4,-2.0,25.22,NNE,30,5.0,7.4,35,0.00,,,-99.99,FreeWX 2.04,2013-03-25 13:44:00,
2013-03-25 07:49:00,21.9,-2.0,25.22,NNE,28,5.0,8.7,34,0.00,,,-99.99,FreeWX 2.04,2013-03-25 13:49:00,
2013-03-25 07:54:00,22.8,-1.8,25.22,NNE,16,6.0,11.2,33,0.00,,,-99.99,FreeWX 2.04,2013-03-25 13:54:00,
2013-03-25 07:59:00,23.2,-1.7,25.22,North,11,6.0,9.6,33,0.00,,,-99.99,FreeWX 2.04,2013-03-25 13:59:00,
2013-03-25 08:04:00,23.5,-1.3,25.22,North,9,6.0,10.1,33,0.00,,,-99.99,FreeWX 2.04,2013-03-25 14:04:00,
2013-03-25 08:09:00,23.9,-0.9,25.22,North,10,6.0,8.3,33,0.00,,,-99.99,FreeWX 2.04,2013-03-25 14:09:00,
2013-03-25 08:14:00,24.1,-1.5,25.22,North,6,7.0,10.5,32,0.00,,,-99.99,FreeWX 2.04,2013-03-25 14:14:00,
2013-03-25 08:19:00,23.9,-1.7,25.22,North,1,7.0,10.1,32,0.00,,,-99.99,FreeWX 2.04,2013-03-25 14:19:00,
2013-03-25 08:24:00,24.6,-0.9,25.25,North,356,7.0,9.6,32,0.00,,,-99.99,FreeWX 2.04,2013-03-25 14:24:00,
2013-03-25 08:29:00,24.4,-3.3,25.25,NNW,344,7.0,11.2,29,0.00,,,-99.99,FreeWX 2.04,2013-03-25 14:29:00,
2013-03-25 08:34:00,24.8,-2.9,25.25,NNW,347,7.0,10.5,29,0.00,,,-99.99,FreeWX 2.04,2013-03-25 14:34:00,
2013-03-25 08:39:00,24.8,-2.9,25.25,North,355,8.0,10.5,29,0.00,,,-99.99,FreeWX 2.04,2013-03-25 14:39:00,
2013-03-25 08:44:00,24.8,-2.9,25.25,North,0,8.0,12.1,29,0.00,,,-99.99,FreeWX 2.04,2013-03-25 14:44:00,
2013-03-25 08:50:00,25.3,-4.0,25.25,North,6,8.0,12.5,27,0.00,,,-99.99,FreeWX 2.04,2013-03-25 14:50:00,
2013-03-25 08:55:00,25.5,-3.8,25.25,North,7,8.0,13.0,27,0.00,,,-99.99,FreeWX 2.04,2013-03-25 14:55:00,
2013-03-25 09:00:00,25.3,-4.0,25.25,North,2,8.0,11.6,27,0.00,,,-99.99,FreeWX 2.04,2013-03-25 15:00:00,
2013-03-25 09:05:00,25.5,-3.8,25.25,North,358,8.0,11.2,27,0.00,,,-99.99,FreeWX 2.04,2013-03-25 15:05:00,
2013-03-25 09:10:00,25.9,-4.2,25.25,North,359,8.0,11.2,26,0.00,,,-99.99,FreeWX 2.04,2013-03-25 15:10:00,
2013-03-25 09:15:00,25.5,-3.8,25.25,North,359,8.0,11.2,27,0.00,,,-99.99,FreeWX 2.04,2013-03-25 15:15:00,
2013-03-25 09:20:00,25.9,-4.2,25.25,North,357,8.0,11.2,26,0.00,,,-99.99,FreeWX 2.04,2013-03-25 15:20:00,
2013-03-25 09:25:00,26.2,-4.0,25.25,North,2,8.0,11.0,26,0.00,,,-99.99,FreeWX 2.04,2013-03-25 15:25:00,
2013-03-25 09:30:00,26.4,-5.4,25.25,North,6,8.0,12.1,24,0.00,,,-99.99,FreeWX 2.04,2013-03-25 15:30:00,
2013-03-25 09:35:00,26.6,-5.3,25.25,North,4,8.0,12.1,24,0.00,,,-99.99,FreeWX 2.04,2013-03-25 15:35:00,
2013-03-25 09:40:00,27.1,-4.7,25.25,North,6,7.0,11.2,24,0.00,,,-99.99,FreeWX 2.04,2013-03-25 15:40:00,
2013-03-25 09:45:00,27.9,-5.1,25.25,NNE,16,7.0,13.0,23,0.00,,,-99.99,FreeWX 2.04,2013-03-25 15:45:00,
2013-03-25 09:50:00,28.0,-6.9,25.25,NNE,14,8.0,11.2,21,0.00,,,-99.99,FreeWX 2.04,2013-03-25 15:50:00,
2013-03-25 09:55:00,28.4,-6.5,25.25,North,8,8.0,12.5,21,0.00,,,-99.99,FreeWX 2.04,2013-03-25 15:55:00,
2013-03-25 10:00:00,28.8,-6.2,25.25,NNE,14,8.0,12.5,21,0.00,,,-99.99,FreeWX 2.04,2013-03-25 16:00:00,
2013-03-25 10:05:00,28.6,-9.4,25.25,NNE,18,8.0,13.0,18,0.00,,,-99.99,FreeWX 2.04,2013-03-25 16:05:00,
2013-03-25 10:10:00,29.7,-8.5,25.25,NNE,17,8.0,11.6,18,0.00,,,-99.99,FreeWX 2.04,2013-03-25 16:10:00,
2013-03-25 10:15:00,29.3,-8.9,25.25,North,6,7.0,9.6,18,0.00,,,-99.99,FreeWX 2.04,2013-03-25 16:15:00,
2013-03-25 10:20:00,30.0,-8.3,25.25,North,2,7.0,11.6,18,0.00,,,-99.99,FreeWX 2.04,2013-03-25 16:20:00,
2013-03-25 10:25:00,30.6,-7.8,25.25,NNE,12,8.0,15.4,18,0.00,,,-99.99,FreeWX 2.04,2013-03-25 16:25:00,
2013-03-25 10:30:00,30.0,-8.3,25.25,North,2,7.0,10.5,18,0.00,,,-99.99,FreeWX 2.04,2013-03-25 16:30:00,
2013-03-25 10:35:00,30.4,-8.0,25.25,North,353,6.0,12.1,18,0.00,,,-99.99,FreeWX 2.04,2013-03-25 16:35:00,
2013-03-25 10:40:00,30.9,-7.6,25.25,North,0,7.0,12.1,18,0.00,,,-99.99,FreeWX 2.04,2013-03-25 16:40:00,
2013-03-25 10:45:00,31.1,-7.4,25.25,North,358,7.0,10.1,18,0.00,,,-99.99,FreeWX 2.04,2013-03-25 16:45:00,
2013-03-25 10:50:00,31.8,-6.9,25.25,North,353,7.0,11.0,18,0.00,,,-99.99,FreeWX 2.04,2013-03-25 16:50:00,
2013-03-25 10:55:00,31.6,-10.7,25.25,North,356,7.0,10.1,15,0.00,,,-99.99,FreeWX 2.04,2013-03-25 16:55:00,
2013-03-25 11:00:00,32.7,-9.8,25.25,North,359,7.0,9.6,15,0.00,,,-99.99,FreeWX 2.04,2013-03-25 17:00:00,
2013-03-25 11:05:00,33.1,-9.4,25.25,North,4,7.0,12.1,15,0.00,,,-99.99,FreeWX 2.04,2013-03-25 17:05:00,
2013-03-25 11:10:00,32.5,-9.9,25.25,North,11,7.0,9.2,15,0.00,,,-99.99,FreeWX 2.04,2013-03-25 17:10:00,
2013-03-25 11:15:00,34.0,-8.7,25.25,North,7,7.0,12.5,15,0.00,,,-99.99,FreeWX 2.04,2013-03-25 17:15:00,
2013-03-25 11:20:00,33.4,-9.2,25.25,NNE,16,7.0,11.2,15,0.00,,,-99.99,FreeWX 2.04,2013-03-25 17:20:00,
2013-03-25 11:25:00,34.0,-8.7,25.25,NNE,17,6.0,9.2,15,0.00,,,-99.99,FreeWX 2.04,2013-03-25 17:25:00,
2013-03-25 11:30:00,34.5,-8.3,25.25,NNE,15,6.0,13.0,15,0.00,,,-99.99,FreeWX 2.04,2013-03-25 17:30:00,
2013-03-25 11:35:00,34.5,-12.8,25.22,North,9,7.0,10.1,12,0.00,,,-99.99,FreeWX 2.04,2013-03-25 17:35:00,
2013-03-25 11:40:00,34.5,-12.8,25.22,North,357,7.0,11.0,12,0.00,,,-99.99,FreeWX 2.04,2013-03-25 17:40:00,
2013-03-25 11:45:00,35.2,-12.3,25.22,North,2,6.0,9.6,12,0.00,,,-99.99,FreeWX 2.04,2013-03-25 17:45:00,
2013-03-25 11:50:00,35.1,-12.3,25.22,NNW,346,6.0,10.5,12,0.00,,,-99.99,FreeWX 2.04,2013-03-25 17:50:00,
2013-03-25 11:55:00,35.4,-12.1,25.22,NW,321,7.0,9.6,12,0.00,,,-99.99,FreeWX 2.04,2013-03-25 17:55:00,
2013-03-25 12:00:00,36.1,-11.6,25.22,NNW,330,6.0,9.6,12,0.00,,,-99.99,FreeWX 2.04,2013-03-25 18:00:00,
2013-03-25 12:05:00,36.9,-12.6,25.22,NNW,327,5.0,9.2,11,0.00,,,-99.99,FreeWX 2.04,2013-03-25 18:05:00,
2013-03-25 12:10:00,37.0,-12.5,25.22,NNW,343,6.0,11.2,11,0.00,,,-99.99,FreeWX 2.04,2013-03-25 18:10:00,
2013-03-25 12:15:00,37.9,-11.7,25.22,North,8,6.0,10.5,11,0.00,,,-99.99,FreeWX 2.04,2013-03-25 18:15:00,
2013-03-25 12:20:00,37.0,-12.5,25.22,NNE,15,6.0,10.5,11,0.00,,,-99.99,FreeWX 2.04,2013-03-25 18:20:00,
2013-03-25 12:25:00,37.0,-12.5,25.22,NNE,20,5.0,11.0,11,0.00,,,-99.99,FreeWX 2.04,2013-03-25 18:25:00,
2013-03-25 12:30:00,36.9,-12.6,25.22,NNW,347,6.0,9.2,11,0.00,,,-99.99,FreeWX 2.04,2013-03-25 18:30:00,
2013-03-25 12:35:00,37.8,-11.9,25.22,North,358,5.0,6.9,11,0.00,,,-99.99,FreeWX 2.04,2013-03-25 18:35:00,
2013-03-25 12:40:00,40.3,-9.9,25.22,NNE,29,4.0,7.8,11,0.00,,,-99.99,FreeWX 2.04,2013-03-25 18:40:00,
2013-03-25 12:45:00,39.0,-11.0,25.22,North,349,4.0,8.7,11,0.00,,,-99.99,FreeWX 2.04,2013-03-25 18:45:00,
2013-03-25 12:50:00,39.6,-10.5,25.22,NW,306,5.0,12.1,11,0.00,,,-99.99,FreeWX 2.04,2013-03-25 18:50:00,
2013-03-25 12:55:00,38.8,-11.2,25.22,North,4,4.0,8.3,11,0.00,,,-99.99,FreeWX 2.04,2013-03-25 18:55:00,
2013-03-25 13:00:00,38.8,-11.2,25.22,NNE,23,5.0,10.1,11,0.00,,,-99.99,FreeWX 2.04,2013-03-25 19:00:00,
2013-03-25 13:05:00,39.2,-10.8,25.22,NNW,340,5.0,6.9,11,0.00,,,-99.99,FreeWX 2.04,2013-03-25 19:05:00,
2013-03-25 13:10:00,39.2,-10.8,25.22,WNW,302,5.0,9.2,11,0.00,,,-99.99,FreeWX 2.04,2013-03-25 19:10:00,
2013-03-25 13:15:00,38.8,-11.2,25.22,SW,236,6.0,7.8,11,0.00,,,-99.99,FreeWX 2.04,2013-03-25 19:15:00,
2013-03-25 13:20:00,39.2,-10.8,25.19,SW,217,4.0,10.1,11,0.00,,,-99.99,FreeWX 2.04,2013-03-25 19:20:00,
2013-03-25 13:25:00,40.5,-9.9,25.19,West,271,4.0,8.7,11,0.00,,,-99.99,FreeWX 2.04,2013-03-25 19:25:00,
2013-03-25 13:30:00,39.7,-10.5,25.19,West,276,6.0,12.1,11,0.00,,,-99.99,FreeWX 2.04,2013-03-25 19:30:00,
2013-03-25 13:35:00,39.4,-10.7,25.19,West,263,6.0,10.5,11,0.00,,,-99.99,FreeWX 2.04,2013-03-25 19:35:00,
2013-03-25 13:41:00,39.7,-10.5,25.19,West,270,6.0,9.6,11,0.00,,,-99.99,FreeWX 2.04,2013-03-25 19:41:00,
2013-03-25 13:46:00,40.5,-9.9,25.19,West,270,6.0,11.2,11,0.00,,,-99.99,FreeWX 2.04,2013-03-25 19:46:00,
2013-03-25 13:51:00,40.5,-9.9,25.19,WSW,246,6.0,11.6,11,0.00,,,-99.99,FreeWX 2.04,2013-03-25 19:51:00,
2013-03-25 13:56:00,40.8,-9.6,25.19,SW,221,7.0,12.5,11,0.00,,,-99.99,FreeWX 2.04,2013-03-25 19:56:00,
2013-03-25 14:01:00,40.5,-9.9,25.19,WSW,242,7.0,13.0,11,0.00,,,-99.99,FreeWX 2.04,2013-03-25 20:01:00,
2013-03-25 14:06:00,40.3,-9.9,25.19,WSW,257,6.0,11.0,11,0.00,,,-99.99,FreeWX 2.04,2013-03-25 20:06:00,
2013-03-25 14:11:00,40.8,-9.6,25.19,WSW,246,6.0,11.0,11,0.00,,,-99.99,FreeWX 2.04,2013-03-25 20:11:00,
2013-03-25 14:16:00,41.0,-9.4,25.19,WSW,254,6.0,10.5,11,0.00,,,-99.99,FreeWX 2.04,2013-03-25 20:16:00,
2013-03-25 14:26:00,41.9,-99.9,25.16,West,279,4.0,7.8,-999,0.00,,,-99.99,FreeWX 2.04,2013-03-25 20:26:00,
2013-03-25 14:31:00,42.4,-99.9,25.16,WSW,252,5.0,10.1,-999,0.00,,,-99.99,FreeWX 2.04,2013-03-25 20:31:00,
2013-03-25 14:36:00,42.8,-99.9,25.16,SW,232,5.0,8.7,-999,0.00,,,-99.99,FreeWX 2.04,2013-03-25 20:36:00,
2013-03-25 14:41:00,42.4,-99.9,25.16,WSW,237,5.0,10.1,-999,0.00,,,-99.99,FreeWX 2.04,2013-03-25 20:41:00,
2013-03-25 14:46:00,42.6,-99.9,25.16,WSW,239,6.0,11.2,-999,0.00,,,-99.99,FreeWX 2.04,2013-03-25 20:46:00,
2013-03-25 14:51:00,43.0,-99.9,25.16,WSW,247,5.0,8.3,-999,0.00,,,-99.99,FreeWX 2.04,2013-03-25 20:51:00,
2013-03-25 14:57:00,43.0,-99.9,25.16,West,281,5.0,8.3,-999,0.00,,,-99.99,FreeWX 2.04,2013-03-25 20:57:00,
2013-03-25 15:02:00,42.8,-99.9,25.16,North,357,6.0,10.5,-999,0.00,,,-99.99,FreeWX 2.04,2013-03-25 21:02:00,
2013-03-25 15:07:00,42.3,-99.9,25.16,NNE,15,6.0,8.3,-999,0.00,,,-99.99,FreeWX 2.04,2013-03-25 21:07:00,
2013-03-25 15:12:00,43.5,-99.9,25.16,ENE,72,5.0,6.9,-999,0.00,,,-99.99,FreeWX 2.04,2013-03-25 21:12:00,
2013-03-25 15:17:00,43.3,-99.9,25.16,SSW,206,6.0,11.0,-999,0.00,,,-99.99,FreeWX 2.04,2013-03-25 21:17:00,
2013-03-25 15:22:00,43.5,-99.9,25.13,SW,225,5.0,6.9,-999,0.00,,,-99.99,FreeWX 2.04,2013-03-25 21:22:00,
2013-03-25 15:27:00,44.6,-99.9,25.13,SSE,162,3.0,7.4,-999,0.00,,,-99.99,FreeWX 2.04,2013-03-25 21:27:00,
2013-03-25 15:32:00,43.9,-99.9,25.13,South,177,4.0,9.2,-999,0.00,,,-99.99,FreeWX 2.04,2013-03-25 21:32:00,
2013-03-25 15:37:00,43.5,-99.9,25.13,West,263,6.0,13.4,-999,0.00,,,-99.99,FreeWX 2.04,2013-03-25 21:37:00,
2013-03-25 15:42:00,43.9,-99.9,25.13,West,274,6.0,12.1,-999,0.00,,,-99.99,FreeWX 2.04,2013-03-25 21:42:00,
2013-03-25 15:47:00,43.9,-99.9,25.13,West,266,5.0,10.5,-999,0.00,,,-99.99,FreeWX 2.04,2013-03-25 21:47:00,
2013-03-25 15:52:00,44.1,-99.9,25.13,SW,231,5.0,7.4,-999,0.00,,,-99.99,FreeWX 2.04,2013-03-25 21:52:00,
2013-03-25 15:57:00,44.1,-99.9,25.13,SSW,204,5.0,9.6,-999,0.00,,,-99.99,FreeWX 2.04,2013-03-25 21:57:00,
2013-03-25 16:02:00,44.1,-99.9,25.13,WSW,238,5.0,9.6,-999,0.00,,,-99.99,FreeWX 2.04,2013-03-25 22:02:00,
2013-03-25 16:07:00,44.8,-99.9,25.13,WSW,253,5.0,8.3,-999,0.00,,,-99.99,FreeWX 2.04,2013-03-25 22:07:00,
2013-03-25 16:12:00,45.1,-99.9,25.13,West,265,4.0,7.8,-999,0.00,,,-99.99,FreeWX 2.04,2013-03-25 22:12:00,
2013-03-25 16:17:00,45.0,-99.9,25.13,West,269,3.0,6.7,-999,0.00,,,-99.99,FreeWX 2.04,2013-03-25 22:17:00,
2013-03-25 16:22:00,45.5,-99.9,25.13,WSW,250,4.0,8.7,-999,0.00,,,-99.99,FreeWX 2.04,2013-03-25 22:22:00,
2013-03-25 16:27:00,46.6,-99.9,25.13,SSW,199,5.0,8.7,-999,0.00,,,-99.99,FreeWX 2.04,2013-03-25 22:27:00,
2013-03-25 16:32:00,45.3,-99.9,25.13,South,174,6.0,8.3,-999,0.00,,,-99.99,FreeWX 2.04,2013-03-25 22:32:00,
2013-03-25 16:37:00,45.9,-99.9,25.13,SSE,153,5.0,6.9,-999,0.00,,,-99.99,FreeWX 2.04,2013-03-25 22:37:00,
2013-03-25 16:42:00,46.0,-99.9,25.13,SE,134,4.0,7.4,-999,0.00,,,-99.99,FreeWX 2.04,2013-03-25 22:42:00,
2013-03-25 16:47:00,46.6,-99.9,25.13,SE,139,3.0,6.3,-999,0.00,,,-99.99,FreeWX 2.04,2013-03-25 22:47:00,
2013-03-25 16:52:00,46.9,-99.9,25.13,SSE,149,2.0,5.8,-999,0.00,,,-99.99,FreeWX 2.04,2013-03-25 22:52:00,
2013-03-25 16:58:00,46.2,-99.9,25.13,South,174,4.0,7.4,-999,0.00,,,-99.99,FreeWX 2.04,2013-03-25 22:58:00,
2013-03-25 17:03:00,46.0,-99.9,25.13,WSW,246,4.0,7.4,-999,0.00,,,-99.99,FreeWX 2.04,2013-03-25 23:03:00,
2013-03-25 17:08:00,45.9,-99.9,25.13,West,269,4.0,7.8,-999,0.00,,,-99.99,FreeWX 2.04,2013-03-25 23:08:00,
2013-03-25 17:13:00,46.2,-99.9,25.13,WSW,247,4.0,7.4,-999,0.00,,,-99.99,FreeWX 2.04,2013-03-25 23:13:00,
2013-03-25 17:18:00,46.0,-99.9,25.13,WSW,244,6.0,10.1,-999,0.00,,,-99.99,FreeWX 2.04,2013-03-25 23:18:00,
2013-03-25 17:23:00,46.0,-99.9,25.13,WSW,257,6.0,10.1,-999,0.00,,,-99.99,FreeWX 2.04,2013-03-25 23:23:00,
2013-03-25 17:28:00,47.1,-99.9,25.13,West,273,4.0,5.4,-999,0.00,,,-99.99,FreeWX 2.04,2013-03-25 23:28:00,
2013-03-25 17:33:00,46.4,-99.9,25.13,NW,305,3.0,7.4,-999,0.00,,,-99.99,FreeWX 2.04,2013-03-25 23:33:00,
2013-03-25 17:38:00,46.0,-99.9,25.10,NNW,342,3.0,6.7,-999,0.00,,,-99.99,FreeWX 2.04,2013-03-25 23:38:00,
2013-03-25 17:43:00,46.0,-99.9,25.10,North,2,4.0,6.9,-999,0.00,,,-99.99,FreeWX 2.04,2013-03-25 23:43:00,
2013-03-25 17:48:00,46.2,-99.9,25.10,North,7,4.0,6.9,-999,0.00,,,-99.99,FreeWX 2.04,2013-03-25 23:48:00,
2013-03-25 17:53:00,45.9,-99.9,25.13,NNW,346,4.0,6.3,-999,0.00,,,-99.99,FreeWX 2.04,2013-03-25 23:53:00,
2013-03-25 17:58:00,46.4,-99.9,25.13,NNW,329,4.0,5.8,-999,0.00,,,-99.99,FreeWX 2.04,2013-03-25 23:58:00,
2013-03-25 18:03:00,46.4,-99.9,25.13,NW,321,3.0,6.7,-999,0.00,,,-99.99,FreeWX 2.04,2013-03-26 00:03:00,
2013-03-25 18:08:00,46.2,-99.9,25.10,NNW,328,3.0,6.9,-999,0.00,,,-99.99,FreeWX 2.04,2013-03-26 00:08:00,
2013-03-25 18:13:00,45.9,-99.9,25.10,North,349,4.0,7.4,-999,0.00,,,-99.99,FreeWX 2.04,2013-03-26 00:13:00,
2013-03-25 18:18:00,46.4,-99.9,25.10,North,358,3.0,4.9,-999,0.00,,,-99.99,FreeWX 2.04,2013-03-26 00:18:00,
2013-03-25 18:23:00,46.4,-99.9,25.10,NNW,348,2.0,6.9,-999,0.00,,,-99.99,FreeWX 2.04,2013-03-26 00:23:00,
2013-03-25 18:28:00,46.2,-99.9,25.10,WNW,283,4.0,9.6,-999,0.00,,,-99.99,FreeWX 2.04,2013-03-26 00:28:00,
2013-03-25 18:33:00,46.0,-99.9,25.10,WSW,240,5.0,8.3,-999,0.00,,,-99.99,FreeWX 2.04,2013-03-26 00:33:00,
2013-03-25 18:38:00,45.9,-99.9,25.13,WSW,242,5.0,6.9,-999,0.00,,,-99.99,FreeWX 2.04,2013-03-26 00:38:00,
2013-03-25 18:43:00,45.9,-99.9,25.13,WSW,250,4.0,7.4,-999,0.00,,,-99.99,FreeWX 2.04,2013-03-26 00:43:00,
2013-03-25 18:48:00,45.5,-99.9,25.13,WSW,256,4.0,7.4,-999,0.00,,,-99.99,FreeWX 2.04,2013-03-26 00:48:00,
2013-03-25 18:53:00,45.7,-99.9,25.13,West,260,3.0,4.0,-999,0.00,,,-99.99,FreeWX 2.04,2013-03-26 00:53:00,
2013-03-25 18:58:00,45.9,-99.9,25.13,West,261,3.0,5.4,-999,0.00,,,-99.99,FreeWX 2.04,2013-03-26 00:58:00,
2013-03-25 19:03:00,45.0,-99.9,25.13,WSW,251,4.0,6.9,-999,0.00,,,-99.99,FreeWX 2.04,2013-03-26 01:03:00,
2013-03-25 19:08:00,44.2,-99.9,25.13,WSW,239,5.0,6.9,-999,0.00,,,-99.99,FreeWX 2.04,2013-03-26 01:08:00,
2013-03-25 19:13:00,43.9,-99.9,25.13,WSW,240,5.0,7.4,-999,0.00,,,-99.99,FreeWX 2.04,2013-03-26 01:13:00,
2013-03-25 19:18:00,43.5,-99.9,25.13,WSW,247,4.0,5.4,-999,0.00,,,-99.99,FreeWX 2.04,2013-03-26 01:18:00,
2013-03-25 19:23:00,43.3,-99.9,25.13,SW,236,4.0,5.8,-999,0.00,,,-99.99,FreeWX 2.04,2013-03-26 01:23:00,
2013-03-25 19:28:00,43.0,-99.9,25.13,SW,217,4.0,5.4,-999,0.00,,,-99.99,FreeWX 2.04,2013-03-26 01:28:00,
2013-03-25 19:33:00,42.6,-99.9,25.13,SSW,212,3.0,3.6,-999,0.00,,,-99.99,FreeWX 2.04,2013-03-26 01:33:00,
2013-03-25 19:38:00,42.1,-99.9,25.13,SSW,212,2.0,4.0,-999,0.00,,,-99.99,FreeWX 2.04,2013-03-26 01:38:00,
2013-03-25 19:43:00,41.5,-9.0,25.13,SSW,212,2.0,3.6,11,0.00,,,-99.99,FreeWX 2.04,2013-03-26 01:43:00,
2013-03-25 19:48:00,40.8,-9.6,25.13,SSW,212,1.0,2.7,11,0.00,,,-99.99,FreeWX 2.04,2013-03-26 01:48:00,
2013-03-25 19:53:00,40.5,-9.9,25.13,North,-999,0.0,2.7,11,0.00,,,-99.99,FreeWX 2.04,2013-03-26 01:53:00,
2013-03-25 19:58:00,40.1,-10.1,25.13,North,-999,0.0,0.0,11,0.00,,,-99.99,FreeWX 2.04,2013-03-26 01:58:00,
2013-03-25 20:03:00,39.6,-10.5,25.13,SSW,212,1.0,3.6,11,0.00,,,-99.99,FreeWX 2.04,2013-03-26 02:03:00,
2013-03-25 20:08:00,39.4,-10.7,25.13,SSW,212,2.0,3.6,11,0.00,,,-99.99,FreeWX 2.04,2013-03-26 02:08:00,
2013-03-25 20:13:00,39.2,-10.8,25.13,SSW,212,2.0,4.0,11,0.00,,,-99.99,FreeWX 2.04,2013-03-26 02:13:00,
2013-03-25 20:18:00,39.4,-10.7,25.13,SSW,212,1.0,0.0,11,0.00,,,-99.99,FreeWX 2.04,2013-03-26 02:18:00,
2013-03-25 20:23:00,38.8,-11.2,25.13,North,-999,0.0,0.0,11,0.00,,,-99.99,FreeWX 2.04,2013-03-26 02:23:00,
2013-03-25 20:28:00,38.5,-11.4,25.13,North,-999,0.0,0.0,11,0.00,,,-99.99,FreeWX 2.04,2013-03-26 02:28:00,
2013-03-25 20:33:00,38.5,-11.4,25.13,SSW,212,1.0,4.0,11,0.00,,,-99.99,FreeWX 2.04,2013-03-26 02:33:00,
2013-03-25 20:38:00,37.9,-11.7,25.13,SSW,212,1.0,3.6,11,0.00,,,-99.99,FreeWX 2.04,2013-03-26 02:38:00,
2013-03-25 20:43:00,37.8,-11.9,25.13,North,-999,0.0,3.1,11,0.00,,,-99.99,FreeWX 2.04,2013-03-26 02:43:00,
2013-03-25 20:48:00,37.9,-11.7,25.13,North,-999,0.0,3.1,11,0.00,,,-99.99,FreeWX 2.04,2013-03-26 02:48:00,
2013-03-25 20:53:00,37.8,-11.9,25.13,North,-999,0.0,0.0,11,0.00,,,-99.99,FreeWX 2.04,2013-03-26 02:53:00,
2013-03-25 20:58:00,37.6,-12.1,25.13,North,-999,0.0,0.0,11,0.00,,,-99.99,FreeWX 2.04,2013-03-26 02:58:00,
2013-03-25 21:03:00,37.4,-12.3,25.13,North,-999,0.0,0.0,11,0.00,,,-99.99,FreeWX 2.04,2013-03-26 03:03:00,
2013-03-25 21:08:00,36.9,-12.6,25.13,North,-999,0.0,0.0,11,0.00,,,-99.99,FreeWX 2.04,2013-03-26 03:08:00,
2013-03-25 21:19:00,36.7,-12.8,25.13,North,-999,0.0,0.0,11,0.00,,,-99.99,FreeWX 2.04,2013-03-26 03:19:00,
2013-03-25 21:24:00,36.9,-12.6,25.13,North,-999,0.0,4.0,11,0.00,,,-99.99,FreeWX 2.04,2013-03-26 03:24:00,
2013-03-25 21:29:00,37.2,-12.5,25.13,North,-999,0.0,4.0,11,0.00,,,-99.99,FreeWX 2.04,2013-03-26 03:29:00,
2013-03-25 21:34:00,36.9,-12.6,25.13,SSW,212,1.0,3.6,11,0.00,,,-99.99,FreeWX 2.04,2013-03-26 03:34:00,
2013-03-25 21:39:00,36.9,-12.6,25.13,North,-999,0.0,4.0,11,0.00,,,-99.99,FreeWX 2.04,2013-03-26 03:39:00,
2013-03-25 21:44:00,36.9,-12.6,25.13,North,-999,0.0,3.1,11,0.00,,,-99.99,FreeWX 2.04,2013-03-26 03:44:00,
2013-03-25 21:49:00,36.7,-12.8,25.13,North,-999,0.0,0.0,11,0.00,,,-99.99,FreeWX 2.04,2013-03-26 03:49:00,
2013-03-25 21:54:00,36.3,-11.4,25.13,North,-999,0.0,3.1,12,0.00,,,-99.99,FreeWX 2.04,2013-03-26 03:54:00,
2013-03-25 21:59:00,36.1,-11.6,25.13,North,-999,0.0,3.6,12,0.00,,,-99.99,FreeWX 2.04,2013-03-26 03:59:00,
2013-03-25 22:04:00,36.3,-11.4,25.13,SSW,212,1.0,3.6,12,0.00,,,-99.99,FreeWX 2.04,2013-03-26 04:04:00,
2013-03-25 22:09:00,36.3,-11.4,25.13,North,-999,0.0,0.0,12,0.00,,,-99.99,FreeWX 2.04,2013-03-26 04:09:00,
2013-03-25 22:14:00,36.3,-11.4,25.13,North,-999,0.0,3.6,12,0.00,,,-99.99,FreeWX 2.04,2013-03-26 04:14:00,
2013-03-25 22:19:00,36.5,-13.0,25.13,North,-999,0.0,3.1,11,0.00,,,-99.99,FreeWX 2.04,2013-03-26 04:19:00,
2013-03-25 22:24:00,36.9,-12.6,25.13,North,-999,0.0,2.7,11,0.00,,,-99.99,FreeWX 2.04,2013-03-26 04:24:00,
2013-03-25 22:29:00,36.9,-12.6,25.13,North,-999,0.0,3.1,11,0.00,,,-99.99,FreeWX 2.04,2013-03-26 04:29:00,
2013-03-25 22:34:00,36.9,-12.6,25.13,North,-999,0.0,3.1,11,0.00,,,-99.99,FreeWX 2.04,2013-03-26 04:34:00,
2013-03-25 22:39:00,36.9,-12.6,25.13,SSW,212,1.0,3.6,11,0.00,,,-99.99,FreeWX 2.04,2013-03-26 04:39:00,
2013-03-25 22:44:00,36.9,-12.6,25.13,SSW,212,1.0,3.1,11,0.00,,,-99.99,FreeWX 2.04,2013-03-26 04:44:00,
2013-03-25 22:49:00,37.0,-12.5,25.13,North,-999,0.0,0.0,11,0.00,,,-99.99,FreeWX 2.04,2013-03-26 04:49:00,
2013-03-25 22:54:00,37.4,-12.3,25.13,North,-999,0.0,0.0,11,0.00,,,-99.99,FreeWX 2.04,2013-03-26 04:54:00,
2013-03-25 23:00:00,37.6,-12.1,25.13,North,-999,0.0,0.0,11,0.00,,,-99.99,FreeWX 2.04,2013-03-26 05:00:00,
2013-03-25 23:05:00,38.1,-11.7,25.13,North,-999,0.0,3.6,11,0.00,,,-99.99,FreeWX 2.04,2013-03-26 05:05:00,
2013-03-25 23:10:00,37.0,-12.5,25.13,SSW,212,1.0,3.1,11,0.00,,,-99.99,FreeWX 2.04,2013-03-26 05:10:00,
2013-03-25 23:15:00,36.3,-11.4,25.13,North,-999,0.0,3.1,12,0.00,,,-99.99,FreeWX 2.04,2013-03-26 05:15:00,
2013-03-25 23:20:00,36.3,-11.4,25.13,SW,221,2.0,4.9,12,0.00,,,-99.99,FreeWX 2.04,2013-03-26 05:20:00,
2013-03-25 23:25:00,36.5,-13.0,25.13,West,268,4.0,5.4,11,0.00,,,-99.99,FreeWX 2.04,2013-03-26 05:25:00,
2013-03-25 23:30:00,37.0,-12.5,25.13,NW,305,4.0,5.8,11,0.00,,,-99.99,FreeWX 2.04,2013-03-26 05:30:00,
2013-03-25 23:35:00,36.9,-12.6,25.13,NW,317,5.0,6.3,11,0.00,,,-99.99,FreeWX 2.04,2013-03-26 05:35:00,
2013-03-25 23:40:00,36.9,-12.6,25.13,NW,322,4.0,5.4,11,0.00,,,-99.99,FreeWX 2.04,2013-03-26 05:40:00,
2013-03-25 23:45:00,36.0,-11.6,25.13,NNW,327,3.0,4.5,12,0.00,,,-99.99,FreeWX 2.04,2013-03-26 05:45:00,
2013-03-25 23:50:00,34.9,-12.5,25.13,NNW,330,2.0,4.0,12,0.00,,,-99.99,FreeWX 2.04,2013-03-26 05:50:00,
2013-03-25 23:55:00,34.5,-12.8,25.13,NNW,330,1.0,3.1,12,0.00,,,-99.99,FreeWX 2.04,2013-03-26 05:55:00,